createdAt,value
2017-08-24T00:01:23.664Z,17.72
2017-08-24T00:03:51.256Z,18.00
2017-08-24T00:06:18.714Z,17.92
2017-08-24T00:08:46.200Z,17.79
2017-08-24T00:11:13.709Z,17.77
2017-08-24T00:13:41.192Z,17.69
2017-08-24T00:16:08.712Z,17.87
2017-08-24T00:18:36.195Z,18.09
2017-08-24T00:21:03.657Z,18.15
2017-08-24T00:23:31.182Z,18.13
2017-08-24T00:25:58.625Z,18.14
2017-08-24T00:28:26.089Z,18.25
2017-08-24T00:30:53.564Z,18.23
2017-08-24T00:33:21.005Z,18.24
2017-08-24T00:35:48.495Z,18.13
2017-08-24T00:38:15.947Z,18.26
2017-08-24T00:40:43.482Z,18.31
2017-08-24T00:43:11.058Z,18.27
2017-08-24T00:45:38.540Z,18.19
2017-08-24T00:48:05.986Z,18.26
2017-08-24T00:50:33.566Z,17.90
2017-08-24T00:53:01.030Z,17.80
2017-08-24T00:55:28.511Z,17.90
2017-08-24T00:57:55.988Z,17.86
2017-08-24T01:00:23.478Z,17.65
2017-08-24T01:02:50.928Z,17.94
2017-08-24T01:05:18.471Z,18.04
2017-08-24T01:07:45.919Z,17.94
2017-08-24T01:10:13.424Z,18.01
2017-08-24T01:12:40.875Z,18.16
2017-08-24T01:15:08.351Z,18.19
2017-08-24T01:17:36.291Z,18.13
2017-08-24T01:20:03.752Z,18.43
2017-08-24T01:22:31.321Z,18.57
2017-08-24T01:24:58.823Z,18.47
2017-08-24T01:27:26.275Z,18.57
2017-08-24T01:29:54.243Z,18.77
2017-08-24T01:32:21.812Z,19.09
2017-08-24T01:34:49.288Z,18.93
2017-08-24T01:37:16.782Z,18.56
2017-08-24T01:39:44.255Z,18.56
2017-08-24T01:42:12.401Z,18.61
2017-08-24T01:44:39.868Z,18.71
2017-08-24T01:47:07.366Z,18.43
2017-08-24T01:49:34.811Z,18.45
2017-08-24T01:52:02.384Z,18.61
2017-08-24T01:54:29.925Z,18.66
2017-08-24T01:56:57.424Z,18.55
2017-08-24T01:59:24.941Z,18.76
2017-08-24T02:01:52.389Z,18.69
2017-08-24T02:04:19.822Z,18.70
2017-08-24T02:06:47.416Z,18.74
2017-08-24T02:09:14.984Z,18.75
2017-08-24T02:11:42.544Z,18.66
2017-08-24T02:14:10.086Z,18.74
2017-08-24T02:16:37.584Z,18.67
2017-08-24T02:19:05.066Z,18.74
2017-08-24T02:21:32.589Z,18.84
2017-08-24T02:24:00.044Z,18.83
2017-08-24T02:26:27.583Z,18.74
2017-08-24T02:28:55.044Z,18.79
2017-08-24T02:31:22.599Z,18.84
2017-08-24T02:33:50.044Z,18.56
2017-08-24T02:36:17.610Z,18.83
2017-08-24T02:38:45.072Z,18.85
2017-08-24T02:41:12.629Z,18.74
2017-08-24T02:43:40.093Z,18.76
2017-08-24T02:46:07.649Z,18.87
2017-08-24T02:48:35.207Z,18.77
2017-08-24T02:51:02.667Z,18.63
2017-08-24T02:53:30.245Z,18.65
2017-08-24T02:55:57.765Z,18.60
2017-08-24T02:58:25.239Z,18.53
2017-08-24T03:00:52.851Z,18.59
2017-08-24T03:03:20.305Z,18.50
2017-08-24T03:05:47.775Z,18.61
2017-08-24T03:08:15.278Z,18.41
2017-08-24T03:10:42.811Z,18.23
2017-08-24T03:13:10.272Z,18.43
2017-08-24T03:15:37.757Z,18.37
2017-08-24T03:18:05.229Z,18.49
2017-08-24T03:20:32.706Z,18.49
2017-08-24T03:23:00.361Z,18.44
2017-08-24T03:25:27.858Z,18.44
2017-08-24T03:27:55.333Z,18.45
2017-08-24T03:30:22.767Z,18.39
2017-08-24T03:32:50.242Z,18.17
2017-08-24T03:35:17.699Z,18.13
2017-08-24T03:37:45.224Z,18.22
2017-08-24T03:40:12.671Z,18.46
2017-08-24T03:42:40.142Z,18.52
2017-08-24T03:45:07.591Z,18.64
2017-08-24T03:47:35.065Z,18.44
2017-08-24T03:50:02.520Z,18.49
2017-08-24T03:52:29.996Z,18.44
2017-08-24T03:54:57.607Z,18.40
2017-08-24T03:57:25.079Z,18.56
2017-08-24T03:59:52.519Z,18.55
2017-08-24T04:02:19.988Z,18.13
2017-08-24T04:04:47.431Z,18.43
2017-08-24T04:07:14.900Z,18.47
2017-08-24T04:09:42.399Z,18.50
2017-08-24T04:12:09.887Z,18.58
2017-08-24T04:14:37.355Z,18.56
2017-08-24T04:17:04.871Z,18.65
2017-08-24T04:19:32.435Z,18.63
2017-08-24T04:21:59.985Z,18.63
2017-08-24T04:24:27.544Z,18.40
2017-08-24T04:26:55.054Z,18.42
2017-08-24T04:29:22.489Z,18.63
2017-08-24T04:31:50.013Z,18.76
2017-08-24T04:34:17.491Z,18.83
2017-08-24T04:36:45.017Z,18.64
2017-08-24T04:39:12.592Z,18.39
2017-08-24T04:41:40.033Z,18.48
2017-08-24T04:44:07.497Z,18.85
2017-08-24T04:46:34.954Z,18.97
2017-08-24T04:49:02.547Z,19.17
2017-08-24T04:51:30.076Z,19.14
2017-08-24T04:53:57.565Z,19.14
2017-08-24T04:56:25.089Z,19.29
2017-08-24T04:58:52.690Z,19.25
2017-08-24T05:01:20.158Z,19.26
2017-08-24T05:03:47.895Z,19.24
2017-08-24T05:06:15.429Z,19.39
2017-08-24T05:08:42.908Z,19.46
2017-08-24T05:11:10.451Z,19.63
2017-08-24T05:13:37.923Z,19.60
2017-08-24T05:16:05.564Z,19.53
2017-08-24T05:18:33.037Z,19.72
2017-08-24T05:21:00.484Z,19.73
2017-08-24T05:23:28.035Z,19.77
2017-08-24T05:25:55.581Z,19.80
2017-08-24T05:28:23.471Z,19.83
2017-08-24T05:30:51.016Z,19.90
2017-08-24T05:33:18.572Z,19.95
2017-08-24T05:35:46.022Z,20.07
2017-08-24T05:38:13.477Z,19.93
2017-08-24T05:40:40.940Z,19.90
2017-08-24T05:43:08.489Z,20.00
2017-08-24T05:45:35.929Z,20.01
2017-08-24T05:48:03.389Z,20.11
2017-08-24T05:50:30.998Z,20.30
2017-08-24T05:52:58.436Z,20.42
2017-08-24T05:55:25.923Z,20.44
2017-08-24T05:57:53.375Z,20.55
2017-08-24T06:00:20.860Z,20.69
2017-08-24T06:02:48.316Z,20.83
2017-08-24T06:05:15.816Z,20.93
2017-08-24T06:07:43.269Z,20.97
2017-08-24T06:10:10.750Z,21.16
2017-08-24T06:12:38.196Z,21.19
2017-08-24T06:15:05.728Z,21.26
2017-08-24T06:17:33.200Z,21.37
2017-08-24T06:20:00.752Z,21.48
2017-08-24T06:22:28.211Z,21.51
2017-08-24T06:24:55.680Z,21.61
2017-08-24T06:27:23.363Z,21.53
2017-08-24T06:29:51.108Z,21.67
2017-08-24T06:32:18.645Z,21.77
2017-08-24T06:34:46.213Z,21.81
2017-08-24T06:37:13.773Z,21.82
2017-08-24T06:39:41.247Z,21.88
2017-08-24T06:42:08.784Z,22.18
2017-08-24T06:44:36.250Z,22.19
2017-08-24T06:47:03.795Z,22.47
2017-08-24T06:49:31.279Z,22.53
2017-08-24T06:51:58.820Z,22.74
2017-08-24T06:54:26.431Z,22.70
2017-08-24T06:56:53.928Z,22.76
2017-08-24T06:59:21.406Z,22.89
2017-08-24T07:01:49.005Z,22.70
2017-08-24T07:04:16.527Z,23.07
2017-08-24T07:06:43.984Z,23.02
2017-08-24T07:09:11.526Z,22.94
2017-08-24T07:11:39.069Z,22.95
2017-08-24T07:14:06.540Z,22.90
2017-08-24T07:16:33.984Z,23.16
2017-08-24T07:19:01.423Z,23.15
2017-08-24T07:21:28.947Z,23.18
2017-08-24T07:23:56.381Z,23.03
2017-08-24T07:26:23.855Z,23.17
2017-08-24T07:28:51.304Z,23.34
2017-08-24T07:31:18.837Z,23.27
2017-08-24T07:33:47.065Z,23.73
2017-08-24T07:36:14.672Z,23.59
2017-08-24T07:38:42.194Z,23.74
2017-08-24T07:41:09.669Z,23.63
2017-08-24T07:43:37.120Z,23.00
2017-08-24T07:46:04.615Z,23.31
2017-08-24T07:48:32.045Z,23.59
2017-08-24T07:50:59.616Z,23.33
2017-08-24T07:53:27.162Z,23.11
2017-08-24T07:55:54.627Z,22.96
2017-08-24T07:58:22.073Z,22.94
2017-08-24T08:00:49.629Z,23.01
2017-08-24T08:03:17.102Z,23.00
2017-08-24T08:05:44.638Z,23.15
2017-08-24T08:08:12.119Z,23.16
2017-08-24T08:10:39.679Z,23.27
2017-08-24T08:13:07.304Z,23.05
2017-08-24T08:15:35.059Z,23.01
2017-08-24T08:18:02.558Z,23.01
2017-08-24T08:20:30.898Z,22.91
2017-08-24T08:22:58.595Z,22.86
2017-08-24T08:25:26.142Z,22.90
2017-08-24T08:27:53.574Z,22.92
2017-08-24T08:30:21.082Z,23.09
2017-08-24T08:32:48.623Z,22.97
2017-08-24T08:35:16.076Z,23.11
2017-08-24T08:37:43.543Z,23.05
2017-08-24T08:40:11.091Z,23.06
2017-08-24T08:42:38.711Z,22.97
2017-08-24T08:45:06.142Z,23.11
2017-08-24T08:47:33.676Z,22.97
2017-08-24T08:50:01.113Z,23.25
2017-08-24T08:52:28.689Z,23.30
2017-08-24T08:54:56.254Z,23.44
2017-08-24T08:57:23.805Z,23.53
2017-08-24T08:59:51.316Z,23.92
2017-08-24T09:02:18.787Z,23.61
2017-08-24T09:04:46.235Z,23.66
2017-08-24T09:07:13.748Z,23.57
2017-08-24T09:09:41.288Z,23.49
2017-08-24T09:12:08.851Z,23.70
2017-08-24T09:14:36.307Z,24.14
2017-08-24T09:17:03.853Z,24.28
2017-08-24T09:19:32.241Z,24.43
2017-08-24T09:21:59.755Z,24.46
2017-08-24T09:24:27.248Z,24.17
2017-08-24T09:26:54.681Z,24.47
2017-08-24T09:29:22.152Z,24.68
2017-08-24T09:31:49.601Z,24.49
2017-08-24T09:34:17.199Z,24.63
2017-08-24T09:36:44.646Z,25.19
2017-08-24T09:39:12.115Z,25.12
2017-08-24T09:41:39.559Z,25.11
2017-08-24T09:44:07.044Z,25.04
2017-08-24T09:46:34.575Z,25.14
2017-08-24T09:49:02.125Z,25.21
2017-08-24T09:51:29.691Z,25.44
2017-08-24T09:53:57.248Z,25.33
2017-08-24T09:56:24.719Z,25.52
2017-08-24T09:58:52.175Z,25.19
2017-08-24T10:01:19.720Z,25.07
2017-08-24T10:03:47.281Z,25.17
2017-08-24T10:06:14.837Z,25.04
2017-08-24T10:08:43.140Z,25.38
2017-08-24T10:11:10.616Z,25.85
2017-08-24T10:13:38.049Z,25.66
2017-08-24T10:16:05.543Z,25.74
2017-08-24T10:18:32.983Z,25.95
2017-08-24T10:21:00.460Z,25.72
2017-08-24T10:23:27.908Z,25.70
2017-08-24T10:25:55.402Z,25.73
2017-08-24T10:28:22.894Z,25.74
2017-08-24T10:30:50.404Z,26.06
2017-08-24T10:33:17.850Z,25.87
2017-08-24T10:35:45.961Z,26.03
2017-08-24T10:38:13.426Z,25.59
2017-08-24T10:40:40.873Z,25.48
2017-08-24T10:43:08.355Z,25.47
2017-08-24T10:45:35.807Z,26.37
2017-08-24T10:48:03.326Z,25.48
2017-08-24T10:50:30.771Z,25.94
2017-08-24T10:52:58.254Z,25.92
2017-08-24T10:55:25.689Z,25.67
2017-08-24T10:57:53.146Z,25.78
2017-08-24T11:00:20.621Z,26.19
2017-08-24T11:02:48.133Z,25.98
2017-08-24T11:05:15.584Z,26.09
2017-08-24T11:07:43.059Z,25.76
2017-08-24T11:10:10.507Z,26.37
2017-08-24T11:12:37.984Z,26.51
2017-08-24T11:15:05.446Z,26.56
2017-08-24T11:17:32.916Z,26.51
2017-08-24T11:20:00.480Z,26.62
2017-08-24T11:22:27.956Z,26.60
2017-08-24T11:24:55.462Z,26.30
2017-08-24T11:27:22.927Z,26.29
2017-08-24T11:29:50.397Z,26.47
2017-08-24T11:32:17.833Z,26.38
2017-08-24T11:34:45.322Z,26.45
2017-08-24T11:37:12.877Z,26.61
2017-08-24T11:39:40.348Z,26.34
2017-08-24T11:42:07.795Z,26.03
2017-08-24T11:44:35.280Z,26.44
2017-08-24T11:47:02.752Z,26.05
2017-08-24T11:49:30.227Z,26.17
2017-08-24T11:51:57.744Z,26.16
2017-08-24T11:54:25.215Z,26.28
2017-08-24T11:56:52.659Z,26.22
2017-08-24T11:59:20.151Z,26.38
2017-08-24T12:01:47.604Z,26.01
2017-08-24T12:04:15.095Z,26.59
2017-08-24T12:06:42.607Z,26.46
2017-08-24T12:09:10.111Z,26.81
2017-08-24T12:11:37.585Z,26.45
2017-08-24T12:14:05.081Z,26.89
2017-08-24T12:16:32.840Z,26.85
2017-08-24T12:19:00.300Z,26.83
2017-08-24T12:21:27.771Z,27.11
2017-08-24T12:23:55.223Z,26.52
2017-08-24T12:26:22.702Z,26.67
2017-08-24T12:28:50.273Z,26.79
2017-08-24T12:31:17.981Z,27.12
2017-08-24T12:33:45.495Z,26.99
2017-08-24T12:36:12.966Z,27.06
2017-08-24T12:38:40.416Z,26.53
2017-08-24T12:41:07.896Z,26.86
2017-08-24T12:43:35.377Z,26.64
2017-08-24T12:46:02.823Z,26.45
2017-08-24T12:48:30.344Z,26.55
2017-08-24T12:50:57.786Z,26.52
2017-08-24T12:53:25.320Z,27.00
2017-08-24T12:55:52.869Z,26.71
2017-08-24T12:58:20.341Z,27.15
2017-08-24T13:00:47.827Z,27.34
2017-08-24T13:03:15.385Z,27.05
2017-08-24T13:05:42.939Z,26.91
2017-08-24T13:08:10.449Z,26.72
2017-08-24T13:10:37.912Z,27.12
2017-08-24T13:13:05.468Z,27.04
2017-08-24T13:15:32.920Z,26.67
2017-08-24T13:18:00.413Z,27.00
2017-08-24T13:20:28.038Z,27.24
2017-08-24T13:22:55.511Z,26.76
2017-08-24T13:25:22.985Z,26.91
2017-08-24T13:27:50.431Z,26.84
2017-08-24T13:30:17.901Z,26.72
2017-08-24T13:32:45.359Z,26.91
2017-08-24T13:35:12.830Z,27.02
2017-08-24T13:37:40.394Z,26.88
2017-08-24T13:40:07.881Z,27.08
2017-08-24T13:42:35.405Z,26.91
2017-08-24T13:45:03.783Z,26.86
2017-08-24T13:47:31.320Z,27.14
2017-08-24T13:49:58.888Z,27.08
2017-08-24T13:52:26.326Z,27.00
2017-08-24T13:54:53.823Z,27.11
2017-08-24T13:57:21.391Z,27.40
2017-08-24T13:59:48.855Z,27.02
2017-08-24T14:02:16.377Z,26.87
2017-08-24T14:04:43.894Z,27.18
2017-08-24T14:07:11.412Z,27.20
2017-08-24T14:09:39.014Z,27.21
2017-08-24T14:12:06.495Z,27.16
2017-08-24T14:14:33.948Z,27.28
2017-08-24T14:17:01.435Z,27.31
2017-08-24T14:19:28.891Z,27.23
2017-08-24T14:21:56.733Z,27.28
2017-08-24T14:24:24.206Z,27.11
2017-08-24T14:26:51.822Z,26.87
2017-08-24T14:29:19.309Z,27.60
2017-08-24T14:31:46.785Z,27.50
2017-08-24T14:34:14.347Z,27.76
2017-08-24T14:36:41.896Z,27.49
2017-08-24T14:39:09.348Z,27.35
2017-08-24T14:41:36.921Z,27.37
2017-08-24T14:44:04.428Z,27.06
2017-08-24T14:46:31.919Z,26.93
2017-08-24T14:48:59.368Z,26.86
2017-08-24T14:51:26.857Z,27.11
2017-08-24T14:53:54.415Z,26.91
2017-08-24T14:56:21.870Z,27.27
2017-08-24T14:58:49.388Z,26.99
2017-08-24T15:01:16.838Z,27.27
2017-08-24T15:03:44.317Z,27.35
2017-08-24T15:06:11.789Z,27.01
2017-08-24T15:08:39.265Z,26.99
2017-08-24T15:11:06.713Z,26.97
2017-08-24T15:13:34.183Z,27.11
2017-08-24T15:16:01.719Z,27.00
2017-08-24T15:18:29.213Z,26.82
2017-08-24T15:20:56.664Z,26.98
2017-08-24T15:23:24.142Z,26.90
2017-08-24T15:25:51.595Z,26.81
2017-08-24T15:28:19.053Z,26.53
2017-08-24T15:30:46.502Z,26.48
2017-08-24T15:33:13.971Z,26.52
2017-08-24T15:35:41.476Z,26.45
2017-08-24T15:38:08.923Z,26.51
2017-08-24T15:40:36.396Z,26.42
2017-08-24T15:43:03.941Z,26.37
2017-08-24T15:45:31.504Z,26.42
2017-08-24T15:47:58.957Z,26.35
2017-08-24T15:50:26.507Z,26.46
2017-08-24T15:52:53.999Z,26.41
2017-08-24T15:55:21.531Z,26.24
2017-08-24T15:57:49.091Z,26.61
2017-08-24T16:00:16.601Z,26.44
2017-08-24T16:02:44.059Z,26.44
2017-08-24T16:05:11.517Z,26.28
2017-08-24T16:07:38.986Z,26.08
2017-08-24T16:10:06.455Z,26.35
2017-08-24T16:12:33.904Z,26.33
2017-08-24T16:15:01.369Z,26.32
2017-08-24T16:17:28.960Z,26.39
2017-08-24T16:19:56.397Z,26.49
2017-08-24T16:22:23.868Z,26.55
2017-08-24T16:24:51.320Z,26.34
2017-08-24T16:27:18.795Z,26.36
2017-08-24T16:29:46.252Z,26.63
2017-08-24T16:32:13.751Z,26.39
2017-08-24T16:34:41.200Z,26.23
2017-08-24T16:37:08.703Z,26.05
2017-08-24T16:39:36.216Z,25.96
2017-08-24T16:42:03.699Z,25.86
2017-08-24T16:44:31.152Z,26.08
2017-08-24T16:46:58.733Z,25.89
2017-08-24T16:49:26.185Z,25.99
2017-08-24T16:51:53.699Z,25.85
2017-08-24T16:54:21.146Z,25.84
2017-08-24T16:56:48.769Z,25.95
2017-08-24T16:59:16.212Z,25.81
2017-08-24T17:01:43.762Z,26.15
2017-08-24T17:04:11.239Z,26.33
2017-08-24T17:06:38.791Z,26.03
2017-08-24T17:09:06.264Z,26.35
2017-08-24T17:11:33.713Z,26.07
2017-08-24T17:14:01.191Z,25.92
2017-08-24T17:16:28.710Z,25.85
2017-08-24T17:18:56.161Z,26.24
2017-08-24T17:21:23.593Z,25.76
2017-08-24T17:23:51.077Z,25.65
2017-08-24T17:26:18.619Z,25.69
2017-08-24T17:28:48.198Z,25.35
2017-08-24T17:31:16.839Z,25.30
2017-08-24T17:33:44.729Z,25.27
2017-08-24T17:36:13.206Z,25.48
2017-08-24T17:38:41.572Z,25.13
2017-08-24T17:41:09.117Z,25.11
2017-08-24T17:43:36.692Z,25.00
2017-08-24T17:46:04.181Z,24.86
2017-08-24T17:48:31.651Z,24.73
2017-08-24T17:50:59.089Z,24.73
2017-08-24T17:53:26.616Z,24.62
2017-08-24T17:55:54.188Z,24.54
2017-08-24T17:58:21.720Z,24.46
2017-08-24T18:00:49.158Z,24.49
2017-08-24T18:03:17.557Z,24.27
2017-08-24T18:05:45.019Z,24.20
2017-08-24T18:08:12.519Z,24.18
2017-08-24T18:10:39.957Z,24.09
2017-08-24T18:13:07.499Z,23.98
2017-08-24T18:15:34.958Z,23.92
2017-08-24T18:18:02.505Z,23.82
2017-08-24T18:20:30.415Z,23.98
2017-08-24T18:22:57.877Z,23.90
2017-08-24T18:25:25.367Z,23.77
2017-08-24T18:27:52.820Z,23.67
2017-08-24T18:30:20.299Z,23.43
2017-08-24T18:32:48.147Z,23.42
2017-08-24T18:35:15.616Z,23.19
2017-08-24T18:37:43.067Z,23.24
2017-08-24T18:40:10.540Z,22.94
2017-08-24T18:42:37.998Z,23.20
2017-08-24T18:45:05.550Z,23.19
2017-08-24T18:47:33.094Z,22.78
2017-08-24T18:50:00.571Z,22.57
2017-08-24T18:52:28.023Z,22.62
2017-08-24T18:54:55.501Z,22.33
2017-08-24T18:57:23.017Z,22.17
2017-08-24T18:59:50.487Z,21.98
2017-08-24T19:02:17.944Z,21.90
2017-08-24T19:04:45.414Z,21.63
2017-08-24T19:07:12.868Z,21.57
2017-08-24T19:09:40.340Z,21.32
2017-08-24T19:12:07.833Z,20.69
2017-08-24T19:14:35.307Z,20.76
2017-08-24T19:17:02.751Z,20.67
2017-08-24T19:19:30.234Z,20.09
2017-08-24T19:21:57.718Z,20.30
2017-08-24T19:24:25.187Z,20.31
2017-08-24T19:26:52.719Z,20.21
2017-08-24T19:29:20.185Z,20.13
2017-08-24T19:31:47.628Z,20.23
2017-08-24T19:34:15.144Z,20.07
2017-08-24T19:36:42.627Z,19.81
2017-08-24T19:39:10.079Z,19.95
2017-08-24T19:41:37.656Z,19.52
2017-08-24T19:44:05.103Z,19.21
2017-08-24T19:46:32.573Z,19.32
2017-08-24T19:49:00.014Z,19.40
2017-08-24T19:51:27.578Z,19.49
2017-08-24T19:53:55.031Z,19.28
2017-08-24T19:56:22.585Z,19.21
2017-08-24T19:58:50.018Z,19.33
2017-08-24T20:01:17.732Z,19.42
2017-08-24T20:03:45.275Z,19.42
2017-08-24T20:06:12.759Z,19.29
2017-08-24T20:08:40.300Z,19.15
2017-08-24T20:11:07.772Z,19.26
2017-08-24T20:13:35.813Z,19.26
2017-08-24T20:16:03.265Z,19.26
2017-08-24T20:18:30.783Z,19.12
2017-08-24T20:20:58.300Z,19.24
2017-08-24T20:23:25.747Z,19.32
2017-08-24T20:25:53.658Z,19.00
2017-08-24T20:28:21.169Z,18.89
2017-08-24T20:30:48.728Z,18.82
2017-08-24T20:33:16.341Z,18.47
2017-08-24T20:35:43.807Z,18.33
2017-08-24T20:38:11.261Z,18.39
2017-08-24T20:40:38.759Z,18.63
2017-08-24T20:43:06.194Z,18.81
2017-08-24T20:45:33.776Z,18.61
2017-08-24T20:48:01.217Z,18.53
2017-08-24T20:50:28.777Z,18.48
2017-08-24T20:52:56.227Z,18.60
2017-08-24T20:55:23.692Z,18.76
2017-08-24T20:57:51.259Z,18.82
2017-08-24T21:00:18.771Z,18.70
2017-08-24T21:02:46.243Z,18.67
2017-08-24T21:05:13.696Z,18.63
2017-08-24T21:07:41.149Z,18.65
2017-08-24T21:10:08.595Z,18.66
2017-08-24T21:12:36.026Z,18.34
2017-08-24T21:15:03.557Z,18.39
2017-08-24T21:17:31.258Z,18.10
2017-08-24T21:19:58.736Z,17.55
2017-08-24T21:22:26.169Z,17.38
2017-08-24T21:24:53.678Z,17.33
2017-08-24T21:27:21.105Z,17.34
2017-08-24T21:29:48.584Z,17.61
2017-08-24T21:32:16.035Z,17.65
2017-08-24T21:34:43.620Z,17.22
2017-08-24T21:37:11.070Z,17.46
2017-08-24T21:39:38.516Z,17.63
2017-08-24T21:42:06.085Z,17.66
2017-08-24T21:44:33.527Z,17.59
2017-08-24T21:47:01.008Z,17.26
2017-08-24T21:49:28.454Z,17.56
2017-08-24T21:51:56.019Z,17.39
2017-08-24T21:54:23.470Z,17.43
2017-08-24T21:56:51.019Z,17.51
2017-08-24T21:59:18.472Z,17.26
2017-08-24T22:01:45.923Z,17.12
2017-08-24T22:04:13.397Z,17.19
2017-08-24T22:06:40.855Z,17.08
2017-08-24T22:09:08.323Z,17.31
2017-08-24T22:11:35.767Z,17.56
2017-08-24T22:14:03.231Z,17.67
2017-08-24T22:16:30.783Z,17.76
2017-08-24T22:18:58.345Z,17.61
2017-08-24T22:21:25.799Z,17.57
2017-08-24T22:23:53.290Z,17.63
2017-08-24T22:26:20.747Z,17.73
2017-08-24T22:28:48.284Z,17.72
2017-08-24T22:31:15.839Z,17.56
2017-08-24T22:33:43.283Z,17.51
2017-08-24T22:36:10.847Z,17.62
2017-08-24T22:38:38.406Z,17.56
2017-08-24T22:41:05.962Z,17.61
2017-08-24T22:43:33.422Z,17.49
2017-08-24T22:46:00.982Z,17.55
2017-08-24T22:48:28.536Z,17.48
2017-08-24T22:50:56.014Z,17.30
2017-08-24T22:53:29.112Z,17.46
2017-08-24T22:59:02.175Z,17.37
2017-08-24T23:04:31.599Z,17.48
2017-08-24T23:06:59.070Z,17.36
2017-08-24T23:09:26.521Z,17.41
2017-08-24T23:11:54.089Z,17.18
2017-08-24T23:14:21.648Z,17.23
2017-08-24T23:16:49.119Z,17.04
2017-08-24T23:19:16.744Z,17.36
2017-08-24T23:21:44.199Z,17.13
2017-08-24T23:24:11.657Z,17.16
2017-08-24T23:26:39.107Z,16.90
2017-08-24T23:29:06.583Z,16.87
2017-08-24T23:31:34.040Z,17.00
2017-08-24T23:34:01.598Z,17.04
2017-08-24T23:36:29.062Z,16.94
2017-08-24T23:38:56.618Z,16.99
2017-08-24T23:41:24.059Z,17.16
2017-08-24T23:43:51.635Z,17.15
2017-08-24T23:46:19.114Z,17.16
2017-08-24T23:48:46.647Z,17.25
2017-08-24T23:51:14.115Z,17.37
2017-08-24T23:53:41.560Z,16.76
2017-08-24T23:56:09.028Z,16.99
2017-08-24T23:58:36.484Z,17.22
